Date,TemperatureHighF,TemperatureAvgF,TemperatureLowF,DewpointHighF,DewpointAvgF,DewpointLowF,HumidityHigh,HumidityAvg,HumidityLow,PressureMaxIn,PressureMinIn,WindSpeedMaxMPH,WindSpeedAvgMPH,GustSpeedMaxMPH,PrecipitationSumIn
2013-12-1,34.9,31.7,27.8,34.5,26.9,16.9,99,83,63,30.40,30.02,6,1,10,0.00
2013-12-2,39.8,36.1,33.2,35.9,34.1,31.8,100,92,83,30.02,29.89,4,1,9,0.00
2013-12-3,41.3,34.9,31.3,35.7,32.6,27.9,100,92,73,29.90,29.82,9,2,13,0.00
2013-12-4,38.3,32.7,28.5,28.4,25.0,21.4,91,74,60,30.16,29.90,14,4,19,0.00
2013-12-5,36.8,34.4,27.3,36.8,32.3,25.3,100,92,76,30.19,29.87,9,3,11,0.08
2013-12-6,44.1,39.7,32.5,42.9,34.6,25.0,100,83,55,30.10,29.81,19,3,25,0.10
2013-12-7,34.1,30.3,22.4,30.6,18.8,10.6,97,64,43,30.40,30.05,19,5,33,0.00
2013-12-8,27.0,23.9,19.1,14.6,10.9,7.6,78,58,44,30.54,30.40,15,2,20,0.00
2013-12-9,27.3,25.0,22.1,26.8,20.4,9.7,98,84,50,30.47,29.84,15,4,18,0.00
2013-12-10,33.7,28.1,19.9,30.3,23.3,9.2,99,83,54,29.89,29.72,20,5,23,0.01
2013-12-11,28.4,22.6,17.3,19.1,12.4,9.4,88,65,46,30.10,29.90,22,9,29,0.00
2013-12-12,19.5,12.9,8.1,11.7,2.2,-6.5,88,63,36,30.25,29.97,17,4,21,0.00
2013-12-13,22.1,13.5,4.8,13.0,3.0,-9.6,80,63,46,30.38,29.89,22,6,26,0.00
2013-12-14,12.9,7.5,1.8,6.4,-4.4,-11.6,84,58,36,30.60,30.29,10,4,19,0.00
2013-12-15,22.2,13.9,9.7,19.7,10.2,5.8,90,85,82,30.25,29.49,14,6,22,0.00
2013-12-16,20.6,14.9,4.5,8.2,-0.2,-7.0,66,51,39,30.19,29.88,29,11,36,0.00
2013-12-17,12.1,5.9,-5.6,8.5,-0.9,-11.0,86,73,53,30.27,30.01,10,2,13,0.00
2013-12-18,29.1,20.1,12.3,18.5,14.3,8.4,92,79,57,30.00,29.85,17,3,24,0.00
2013-12-19,35.5,28.8,21.6,27.2,22.3,18.7,94,77,56,30.04,29.88,11,3,16,0.04
2013-12-20,37.8,33.1,30.7,33.2,29.7,26.7,98,87,70,30.07,29.86,4,0,5,0.18
2013-12-21,39.9,35.4,33.1,37.2,34.6,32.0,100,97,85,29.89,29.81,5,0,7,0.42
2013-12-22,38.5,32.8,30.0,38.5,32.7,30.0,100,100,98,30.03,29.79,14,4,20,0.34
2013-12-23,35.5,31.8,29.5,35.0,31.6,29.2,100,99,93,30.07,29.95,6,1,11,0.16
2013-12-24,34.4,26.0,13.8,32.6,17.2,5.5,97,69,47,30.20,30.03,16,5,20,0.00
2013-12-25,17.2,10.8,4.7,8.8,1.0,-6.0,88,65,46,30.52,30.20,16,3,24,0.00
2013-12-26,23.5,16.8,11.2,21.5,13.8,8.4,94,88,75,30.48,30.07,5,1,6,0.00
2013-12-27,29.7,19.4,7.9,23.4,15.2,4.3,95,84,57,30.20,30.13,13,2,19,0.00
2013-12-28,37.2,27.6,11.7,32.3,24.0,8.6,99,86,74,30.15,29.93,12,3,15,0.04
2013-12-29,34.7,30.5,24.2,33.1,29.6,23.7,100,96,84,29.97,29.51,5,1,6,0.02
2013-12-30,35.2,24.3,5.6,34.3,19.3,-3.6,100,82,61,30.15,29.50,23,4,26,0.00
2013-12-31,14.4,5.7,-2.2,6.0,-2.1,-8.3,85,70,47,30.14,30.01,7,1,13,0.00